createdAt,value
2023-01-11T04:01:11.639Z,6.50
2023-01-11T04:03:38.909Z,6.60
2023-01-11T04:06:06.608Z,6.60
2023-01-11T04:08:33.851Z,6.60
2023-01-11T04:11:04.071Z,6.60
2023-01-11T04:13:32.317Z,6.60
2023-01-11T04:15:59.499Z,6.60
2023-01-11T04:18:26.744Z,6.60
2023-01-11T04:20:53.907Z,6.60
2023-01-11T04:23:21.158Z,6.60
2023-01-11T04:25:48.553Z,6.60
2023-01-11T04:28:15.843Z,6.70
2023-01-11T04:30:43.052Z,6.70
2023-01-11T04:33:13.201Z,6.60
2023-01-11T04:35:40.636Z,6.60
2023-01-11T04:38:07.833Z,6.60
2023-01-11T04:40:35.152Z,6.60
2023-01-11T04:43:02.426Z,6.60
2023-01-11T04:45:30.657Z,6.70
2023-01-11T04:47:58.568Z,6.70
2023-01-11T04:50:27.413Z,6.80
2023-01-11T04:52:54.651Z,6.80
2023-01-11T04:55:21.855Z,6.80
2023-01-11T04:57:49.052Z,6.90
2023-01-11T05:00:16.612Z,6.90
2023-01-11T05:02:43.823Z,6.90
2023-01-11T05:05:11.988Z,7.00
2023-01-11T05:07:39.270Z,7.00
2023-01-11T05:10:06.898Z,7.00
2023-01-11T05:12:34.066Z,7.10
2023-01-11T05:15:01.243Z,7.20
2023-01-11T05:17:28.406Z,7.20
2023-01-11T05:19:55.636Z,7.20
2023-01-11T05:22:22.981Z,7.20
2023-01-11T05:24:50.152Z,7.30
2023-01-11T05:27:17.316Z,7.30
2023-01-11T05:29:44.454Z,7.40
2023-01-11T05:32:12.413Z,7.30
2023-01-11T05:34:39.747Z,7.40
2023-01-11T05:37:07.017Z,7.40
2023-01-11T05:39:34.209Z,7.40
2023-01-11T05:42:01.391Z,7.30
2023-01-11T05:44:47.034Z,7.50
2023-01-11T05:47:14.170Z,7.60
2023-01-11T05:49:41.401Z,7.50
2023-01-11T05:52:08.566Z,7.60
2023-01-11T05:54:35.750Z,7.50
2023-01-11T05:57:03.155Z,7.50
2023-01-11T05:59:32.143Z,7.40
2023-01-11T06:01:59.575Z,7.30
2023-01-11T06:04:27.478Z,7.30
2023-01-11T06:06:54.803Z,7.30
2023-01-11T06:09:21.986Z,7.30
2023-01-11T06:11:50.606Z,7.40
2023-01-11T06:14:17.798Z,7.40
2023-01-11T06:16:45.101Z,7.30
2023-01-11T06:19:12.400Z,7.30
2023-01-11T06:21:39.819Z,7.30
2023-01-11T06:24:07.406Z,7.20
2023-01-11T06:26:34.607Z,7.20
2023-01-11T06:29:01.796Z,7.20
2023-01-11T06:31:28.972Z,7.20
2023-01-11T06:33:56.119Z,7.10
2023-01-11T06:36:24.598Z,6.90
2023-01-11T06:38:52.744Z,6.90
2023-01-11T06:41:20.000Z,7.00
2023-01-11T06:43:47.287Z,6.90
2023-01-11T06:46:15.975Z,6.90
2023-01-11T06:48:43.968Z,6.90
2023-01-11T06:51:12.064Z,6.90
2023-01-11T06:53:40.612Z,6.90
2023-01-11T06:56:11.268Z,6.80
2023-01-11T06:58:38.605Z,6.70
2023-01-11T07:01:06.624Z,6.70
2023-01-11T07:03:34.208Z,6.70
2023-01-11T07:06:02.228Z,6.70
2023-01-11T07:08:29.409Z,6.70
2023-01-11T07:10:56.631Z,6.60
2023-01-11T07:13:23.809Z,6.60
2023-01-11T07:15:53.958Z,6.60
2023-01-11T07:18:22.274Z,6.70
2023-01-11T07:20:51.108Z,6.80
2023-01-11T07:23:18.379Z,6.80
2023-01-11T07:25:45.524Z,6.80
2023-01-11T07:28:12.705Z,6.90
2023-01-11T07:30:56.105Z,6.80
2023-01-11T07:33:25.124Z,6.80
2023-01-11T07:35:52.412Z,6.80
2023-01-11T07:38:19.585Z,6.90
2023-01-11T07:40:46.949Z,6.90
2023-01-11T07:43:15.105Z,6.80
2023-01-11T07:45:49.331Z,6.90
2023-01-11T07:48:26.182Z,6.90
2023-01-11T07:50:54.420Z,6.90
2023-01-11T07:53:25.391Z,6.90
2023-01-11T07:55:54.421Z,6.90
2023-01-11T07:58:21.780Z,7.00
2023-01-11T08:00:49.008Z,7.10
2023-01-11T08:03:16.390Z,7.00
2023-01-11T08:05:43.607Z,7.10
2023-01-11T08:08:10.887Z,7.20
2023-01-11T08:10:39.216Z,7.30
2023-01-11T08:13:30.615Z,7.40
2023-01-11T08:15:58.846Z,7.40
2023-01-11T08:18:26.126Z,7.40
2023-01-11T08:20:53.418Z,7.50
2023-01-11T08:23:20.607Z,7.60
2023-01-11T08:25:47.754Z,7.70
2023-01-11T08:28:14.971Z,7.80
2023-01-11T08:30:42.569Z,7.60
2023-01-11T08:33:10.366Z,7.60
2023-01-11T08:35:39.360Z,7.60
2023-01-11T08:38:07.043Z,7.60
2023-01-11T08:40:34.291Z,7.70
2023-01-11T08:43:01.473Z,7.70
2023-01-11T08:45:28.845Z,7.80
2023-01-11T08:47:56.224Z,7.90
2023-01-11T08:50:23.575Z,8.00
2023-01-11T08:52:51.656Z,8.10
2023-01-11T08:55:19.913Z,8.20
2023-01-11T08:57:47.645Z,8.30
2023-01-11T09:00:15.690Z,8.20
2023-01-11T09:02:45.268Z,8.30
2023-01-11T09:05:12.649Z,8.40
2023-01-11T09:07:39.785Z,8.50
2023-01-11T09:10:07.355Z,8.60
2023-01-11T09:12:35.044Z,8.70
2023-01-11T09:15:02.463Z,8.70
2023-01-11T09:17:29.641Z,8.90
2023-01-11T09:19:56.843Z,9.00
2023-01-11T09:22:23.997Z,9.00
2023-01-11T09:24:51.225Z,9.20
2023-01-11T09:27:19.132Z,9.30
2023-01-11T09:29:46.474Z,9.40
2023-01-11T09:32:13.743Z,9.40
2023-01-11T09:34:42.813Z,9.50
2023-01-11T09:37:10.015Z,9.70
2023-01-11T09:39:37.412Z,9.60
2023-01-11T09:42:36.667Z,9.70
2023-01-11T09:45:27.751Z,9.80
2023-01-11T09:48:04.929Z,9.70
2023-01-11T09:50:36.005Z,9.70
2023-01-11T09:53:09.627Z,9.80
2023-01-11T09:55:42.860Z,9.80
2023-01-11T09:58:48.934Z,9.90
2023-01-11T10:01:36.126Z,10.00
2023-01-11T10:04:36.742Z,10.20
2023-01-11T10:07:45.899Z,10.50
2023-01-11T10:18:40.055Z,10.80
2023-01-11T10:19:35.831Z,10.80
2023-01-11T10:22:15.628Z,10.80
2023-01-11T10:24:50.104Z,11.00
2023-01-11T10:27:37.843Z,11.00
2023-01-11T10:30:35.893Z,11.20
2023-01-11T10:33:43.611Z,11.20
2023-01-11T10:37:01.532Z,11.20
2023-01-11T10:40:06.512Z,11.10
2023-01-11T10:42:44.074Z,11.20
2023-01-11T10:45:21.344Z,11.20
2023-01-11T10:48:12.462Z,11.30
2023-01-11T10:50:58.392Z,11.50
2023-01-11T10:53:34.212Z,11.50
2023-01-11T10:56:12.123Z,11.50
2023-01-11T10:58:50.332Z,11.60
2023-01-11T11:01:32.870Z,11.80
2023-01-11T11:04:05.563Z,11.80
2023-01-11T11:06:45.971Z,11.90
2023-01-11T11:09:40.165Z,11.90
2023-01-11T11:12:27.605Z,11.90
2023-01-11T11:15:20.344Z,12.00
2023-01-11T11:17:54.107Z,12.00
2023-01-11T11:20:24.073Z,11.90
2023-01-11T11:22:53.184Z,11.90
2023-01-11T11:25:38.546Z,11.90
2023-01-11T11:28:25.587Z,12.00
2023-01-11T11:30:58.000Z,12.00
2023-01-11T11:33:31.281Z,12.00
2023-01-11T11:36:04.815Z,12.00
2023-01-11T11:38:39.910Z,11.90
2023-01-11T11:41:11.664Z,11.90
2023-01-11T11:43:41.756Z,11.90
2023-01-11T11:46:18.784Z,11.90
2023-01-11T11:49:15.617Z,12.00
2023-01-11T11:51:45.474Z,11.90
2023-01-11T11:54:34.307Z,12.00
2023-01-11T11:57:22.328Z,12.00
2023-01-11T11:59:59.956Z,12.00
2023-01-11T12:02:32.557Z,12.00
2023-01-11T12:05:05.792Z,12.00
2023-01-11T12:07:46.272Z,12.00
2023-01-11T12:10:23.799Z,12.00
2023-01-11T12:12:52.488Z,12.00
2023-01-11T12:15:25.306Z,12.00
2023-01-11T12:17:53.229Z,12.00
2023-01-11T12:20:23.181Z,11.90
2023-01-11T12:23:07.797Z,11.90
2023-01-11T12:25:55.733Z,11.90
2023-01-11T12:28:38.232Z,11.90
2023-01-11T12:31:38.399Z,11.90
2023-01-11T12:34:22.772Z,12.00
2023-01-11T12:36:59.087Z,11.90
2023-01-11T12:39:38.522Z,11.70
2023-01-11T12:42:15.737Z,11.60
2023-01-11T12:45:01.694Z,11.50
2023-01-11T12:47:50.523Z,11.40
2023-01-11T12:50:33.291Z,11.50
2023-01-11T12:53:12.106Z,11.50
2023-01-11T12:55:57.144Z,11.50
2023-01-11T12:58:50.165Z,11.50
2023-01-11T13:01:17.374Z,11.30
2023-01-11T13:04:12.060Z,11.30
2023-01-11T13:07:13.015Z,11.10
2023-01-11T13:10:05.530Z,11.00
2023-01-11T13:12:45.866Z,10.80
2023-01-11T13:15:35.980Z,10.80
2023-01-11T13:18:24.132Z,10.70
2023-01-11T13:21:02.573Z,10.50
2023-01-11T13:23:39.275Z,10.40
2023-01-11T13:26:21.647Z,10.20
2023-01-11T13:28:59.608Z,10.00
2023-01-11T13:31:29.497Z,9.80
2023-01-11T13:34:27.589Z,9.80
2023-01-11T13:37:07.580Z,9.80
2023-01-11T13:40:02.719Z,9.80
2023-01-11T13:42:40.845Z,9.60
2023-01-11T13:45:23.265Z,9.60
2023-01-11T13:48:13.702Z,9.60
2023-01-11T13:50:52.623Z,9.50
2023-01-11T13:53:36.532Z,9.40
2023-01-11T13:56:43.075Z,9.30
2023-01-11T13:59:24.593Z,9.00
2023-01-11T14:02:00.733Z,9.10
2023-01-11T14:04:38.796Z,9.00
2023-01-11T14:07:05.893Z,8.90
2023-01-11T14:09:57.036Z,8.90
2023-01-11T14:12:39.333Z,9.10
2023-01-11T14:15:21.531Z,9.10
2023-01-11T14:18:09.192Z,9.20
2023-01-11T14:20:45.358Z,9.10
2023-01-11T14:23:18.990Z,9.10
2023-01-11T14:26:25.144Z,9.00
2023-01-11T14:29:33.310Z,9.00
2023-01-11T14:32:06.976Z,9.00
2023-01-11T14:34:40.217Z,8.90
2023-01-11T14:37:19.384Z,8.90
2023-01-11T14:40:01.196Z,9.00
2023-01-11T14:42:37.567Z,9.00
2023-01-11T14:45:16.911Z,8.90
2023-01-11T14:47:59.074Z,8.90
2023-01-11T14:50:53.721Z,8.90
2023-01-11T14:53:25.561Z,8.80
2023-01-11T14:55:52.786Z,8.90
2023-01-11T14:58:27.135Z,8.90
2023-01-11T15:00:54.286Z,8.80
2023-01-11T15:03:21.484Z,8.90
2023-01-11T15:06:01.403Z,8.90
2023-01-11T15:08:41.624Z,8.70
2023-01-11T15:11:25.532Z,8.70
2023-01-11T15:14:21.943Z,8.50
2023-01-11T15:17:13.402Z,8.60
2023-01-11T15:19:42.973Z,8.50
2023-01-11T15:22:25.126Z,8.50
2023-01-11T15:25:15.047Z,8.50
2023-01-11T15:27:42.208Z,8.60
2023-01-11T15:30:29.865Z,8.50
2023-01-11T15:33:19.049Z,8.50
2023-01-11T15:35:55.323Z,8.50
2023-01-11T15:38:28.393Z,8.50
2023-01-11T15:40:57.280Z,8.50
2023-01-11T15:43:52.042Z,8.50
2023-01-11T15:46:51.306Z,8.50
2023-01-11T15:49:27.538Z,8.40
2023-01-11T15:51:54.658Z,8.40
2023-01-11T15:54:49.562Z,8.40
2023-01-11T15:57:39.753Z,8.40
2023-01-11T16:00:22.166Z,8.40
2023-01-11T16:03:17.269Z,8.40
2023-01-11T16:06:17.837Z,8.40
2023-01-11T16:09:06.773Z,8.50
2023-01-11T16:11:52.509Z,8.40
2023-01-11T16:14:39.861Z,8.30
2023-01-11T16:17:14.592Z,8.30
2023-01-11T16:19:45.745Z,8.30
2023-01-11T16:22:19.663Z,8.30
2023-01-11T16:24:51.147Z,8.30
2023-01-11T16:27:28.660Z,8.20
2023-01-11T16:29:56.530Z,8.30
2023-01-11T16:32:32.896Z,8.30
2023-01-11T16:35:02.603Z,8.30
2023-01-11T16:37:43.735Z,8.20
2023-01-11T16:40:22.133Z,8.20
2023-01-11T16:42:51.377Z,8.20
2023-01-11T16:45:24.195Z,8.20
2023-01-11T16:48:03.725Z,8.20
2023-01-11T16:50:31.953Z,8.10
2023-01-11T16:53:10.563Z,8.10
2023-01-11T16:55:44.065Z,8.10
2023-01-11T16:58:32.190Z,8.10
2023-01-11T17:01:00.970Z,8.10
2023-01-11T17:03:33.689Z,8.10
2023-01-11T17:06:12.669Z,8.10
2023-01-11T17:09:06.745Z,8.10
2023-01-11T17:11:37.699Z,8.10
2023-01-11T17:14:26.858Z,8.10
2023-01-11T17:16:59.967Z,8.20
2023-01-11T17:19:36.771Z,8.10
2023-01-11T17:22:15.564Z,8.10
2023-01-11T17:25:07.918Z,8.10
2023-01-11T17:27:42.687Z,8.00
2023-01-11T17:30:25.321Z,8.10
2023-01-11T17:32:54.558Z,8.20
2023-01-11T17:35:24.990Z,8.20
2023-01-11T17:38:00.439Z,8.20
2023-01-11T17:40:36.257Z,8.10
2023-01-11T17:43:23.271Z,8.00
2023-01-11T17:45:58.290Z,8.10
2023-01-11T17:48:29.677Z,8.10
2023-01-11T17:50:59.757Z,8.10
2023-01-11T17:53:35.040Z,8.00
2023-01-11T17:56:04.688Z,8.00
2023-01-11T17:58:33.781Z,7.80
2023-01-11T18:01:09.785Z,7.80
2023-01-11T18:03:46.894Z,7.80
2023-01-11T18:06:35.554Z,7.70
2023-01-11T18:09:07.540Z,7.60
2023-01-11T18:11:40.619Z,7.80
2023-01-11T18:14:22.273Z,7.70
2023-01-11T18:16:57.722Z,7.80
2023-01-11T18:19:38.034Z,7.90
2023-01-11T18:22:40.657Z,7.80
2023-01-11T18:25:21.867Z,7.80
2023-01-11T18:27:49.637Z,7.80
2023-01-11T18:30:31.932Z,7.80
2023-01-11T18:33:02.083Z,7.80
2023-01-11T18:35:30.739Z,7.80
2023-01-11T18:37:57.947Z,7.80
2023-01-11T18:40:25.129Z,7.90
2023-01-11T18:42:53.774Z,7.90
2023-01-11T18:47:49.096Z,7.90
2023-01-11T18:50:18.783Z,7.90
2023-01-11T18:52:46.789Z,7.90
2023-01-11T18:55:14.495Z,7.90
2023-01-11T18:57:42.395Z,7.80
2023-01-11T19:00:19.595Z,7.80
2023-01-11T19:02:46.855Z,7.80
2023-01-11T19:05:16.618Z,7.70
2023-01-11T19:07:44.040Z,7.60
2023-01-11T19:10:15.137Z,7.60
2023-01-11T19:12:43.390Z,7.50
2023-01-11T19:15:12.240Z,7.50
2023-01-11T19:17:39.860Z,7.40
2023-01-11T19:20:09.196Z,7.40
2023-01-11T19:22:37.370Z,7.40
2023-01-11T19:25:05.386Z,7.60
2023-01-11T19:30:00.155Z,7.60
2023-01-11T19:32:27.395Z,7.60
2023-01-11T19:34:58.050Z,7.60
2023-01-11T19:37:30.223Z,7.60
2023-01-11T19:39:57.336Z,7.60
2023-01-11T19:42:24.759Z,7.50
2023-01-11T19:44:52.021Z,7.40
2023-01-11T19:47:19.450Z,7.50
2023-01-11T19:49:46.664Z,7.50
2023-01-11T19:52:18.992Z,7.50
2023-01-11T19:54:47.295Z,7.40
2023-01-11T19:57:18.734Z,7.40
2023-01-11T19:59:47.428Z,7.50
2023-01-11T20:02:16.400Z,7.50
2023-01-11T20:04:43.983Z,7.50
2023-01-11T20:07:13.610Z,7.50
2023-01-11T20:09:40.892Z,7.50
2023-01-11T20:12:10.379Z,7.50
2023-01-11T20:14:40.249Z,7.50
2023-01-11T20:17:07.887Z,7.60
2023-01-11T20:19:35.099Z,7.50
2023-01-11T20:22:02.402Z,7.40
2023-01-11T20:24:30.032Z,7.40
2023-01-11T20:26:59.554Z,7.40
2023-01-11T20:29:26.844Z,7.40
2023-01-11T20:31:54.144Z,7.40
2023-01-11T20:34:21.625Z,7.40
2023-01-11T20:36:49.025Z,7.40
2023-01-11T20:39:17.590Z,7.50
2023-01-11T20:41:48.295Z,7.40
2023-01-11T20:44:32.047Z,7.40
2023-01-11T20:46:59.821Z,7.40
2023-01-11T20:49:31.222Z,7.40
2023-01-11T20:51:58.648Z,7.30
2023-01-11T20:54:26.118Z,7.40
2023-01-11T20:56:53.312Z,7.40
2023-01-11T20:59:20.810Z,7.40
2023-01-11T21:01:50.210Z,7.40
2023-01-11T21:04:18.407Z,7.40
2023-01-11T21:06:50.385Z,7.40
2023-01-11T21:09:18.622Z,7.30
2023-01-11T21:11:53.084Z,7.20
2023-01-11T21:14:21.774Z,7.30
2023-01-11T21:16:49.050Z,7.40
2023-01-11T21:19:16.354Z,7.30
2023-01-11T21:21:44.583Z,7.30
2023-01-11T21:24:14.038Z,7.20
2023-01-11T21:26:42.432Z,7.30
2023-01-11T21:29:10.650Z,7.30
2023-01-11T21:31:38.645Z,7.30
2023-01-11T21:34:06.367Z,7.20
2023-01-11T21:36:34.295Z,7.20
2023-01-11T21:39:02.682Z,7.20
2023-01-11T21:41:51.196Z,7.10
2023-01-11T21:44:19.832Z,7.00
2023-01-11T21:46:48.817Z,6.90
2023-01-11T21:49:16.658Z,6.90
2023-01-11T21:51:43.876Z,6.90
2023-01-11T21:54:13.395Z,6.90
2023-01-11T21:56:41.999Z,6.90
2023-01-11T21:59:09.518Z,6.90
